Time;durP1;ratioP1;P1;durP2;ratioP2;P2;SDS_P1;SDS_P2;PMS_P1;PMS_P2;Temp;Humidity;BMP_temperature;BMP_pressure;BME280_temperature;BME280_humidity;BME280_pressure;Samples;Min_cycle;Max_cycle;Signal;HPM_P1;HPM_P2
2021/05/14 00:03:16;;;;;;;12.53;9.80;;;;;;;12.22;67.74;100480.97;6137168;28;20247;-51
2021/05/14 00:06:36;;;;;;;11.97;9.83;;;;;;;12.10;67.67;100479.50;6138107;28;20516;-53
2021/05/14 00:09:57;;;;;;;13.40;8.03;;;;;;;11.86;68.41;100477.34;6145931;28;20228;-52
2021/05/14 00:13:18;;;;;;;11.17;7.50;;;;;;;12.02;68.14;100482.25;6141442;28;20255;-50
2021/05/14 00:16:38;;;;;;;12.47;7.57;;;;;;;11.83;68.29;100478.25;6132546;28;20231;-49
2021/05/14 00:19:58;;;;;;;11.73;8.10;;;;;;;11.75;68.71;100482.78;6137851;28;20239;-54
2021/05/14 00:23:18;;;;;;;10.03;7.63;;;;;;;11.95;68.14;100479.81;6140109;29;20520;-46
2021/05/14 00:26:40;;;;;;;11.67;8.07;;;;;;;11.97;68.03;100478.03;6140318;29;20644;-50
2021/05/14 00:30:00;;;;;;;10.93;7.80;;;;;;;11.86;68.61;100486.00;6136044;29;20242;-50
2021/05/14 00:33:21;;;;;;;9.80;7.17;;;;;;;11.90;68.21;100479.88;6139945;28;20545;-51
2021/05/14 00:36:41;;;;;;;11.17;8.23;;;;;;;11.68;68.87;100474.19;6139136;28;20313;-53
2021/05/14 00:40:02;;;;;;;10.10;7.87;;;;;;;11.93;68.22;100477.22;6139584;28;20251;-51
2021/05/14 00:43:24;;;;;;;12.23;7.20;;;;;;;11.88;68.04;100478.16;6133977;28;20395;-50
2021/05/14 00:46:44;;;;;;;8.80;7.03;;;;;;;11.74;68.28;100481.91;6138318;29;20239;-52
2021/05/14 00:50:06;;;;;;;8.97;6.73;;;;;;;11.89;68.18;100472.06;6140381;29;20550;-51
2021/05/14 00:53:26;;;;;;;14.10;7.40;;;;;;;11.68;68.88;100468.13;6136745;28;20741;-53
2021/05/14 00:56:47;;;;;;;9.00;6.37;;;;;;;11.65;69.50;100476.00;6115402;29;20235;-50
2021/05/14 01:00:09;;;;;;;6.50;5.07;;;;;;;11.79;68.10;100474.00;6141027;28;20266;-45
2021/05/14 01:03:30;;;;;;;10.57;5.67;;;;;;;12.04;67.62;100468.31;6141349;29;20235;-48
2021/05/14 01:06:50;;;;;;;12.87;6.37;;;;;;;11.92;67.87;100479.84;6141935;29;20384;-51
2021/05/14 01:10:11;;;;;;;9.67;7.33;;;;;;;11.92;68.37;100470.28;6142920;28;20239;-53
2021/05/14 01:13:33;;;;;;;9.57;6.53;;;;;;;11.74;68.73;100468.84;6136394;28;20247;-47
2021/05/14 01:16:54;;;;;;;8.57;7.30;;;;;;;11.37;69.69;100466.09;6135567;28;20239;-49
2021/05/14 01:20:15;;;;;;;11.90;7.03;;;;;;;11.52;69.28;100468.41;6129930;28;20239;-49
2021/05/14 01:23:36;;;;;;;7.40;5.67;;;;;;;11.75;68.85;100472.34;6142902;28;20613;-49
2021/05/14 01:26:57;;;;;;;9.50;6.30;;;;;;;11.77;68.29;100466.19;6123687;28;20231;-47
2021/05/14 01:30:18;;;;;;;11.93;7.43;;;;;;;11.68;68.50;100475.94;6127329;28;20231;-50
2021/05/14 01:33:39;;;;;;;10.17;6.70;;;;;;;11.95;67.74;100478.03;6126648;29;20653;-48
2021/05/14 01:37:00;;;;;;;10.50;6.97;;;;;;;11.72;68.76;100477.59;6143299;29;20235;-53
2021/05/14 01:40:21;;;;;;;8.80;6.47;;;;;;;11.86;68.51;100465.13;6142364;29;20243;-52
2021/05/14 01:43:41;;;;;;;10.70;6.60;;;;;;;11.81;68.40;100467.00;6143101;28;20684;-53
2021/05/14 01:47:01;;;;;;;13.07;7.77;;;;;;;11.84;68.54;100469.53;6142662;28;20603;-48
2021/05/14 01:50:22;;;;;;;11.80;7.33;;;;;;;11.82;68.49;100461.75;6141818;28;20239;-49
2021/05/14 01:53:42;;;;;;;13.70;6.57;;;;;;;11.86;68.39;100466.91;6141520;28;20328;-50
2021/05/14 01:57:04;;;;;;;11.33;9.17;;;;;;;12.02;68.07;100455.31;6142558;29;20645;-47
2021/05/14 02:00:25;;;;;;;8.70;6.70;;;;;;;11.72;68.46;100454.13;6135737;29;20224;-49
2021/05/14 02:03:46;;;;;;;13.97;7.40;;;;;;;11.61;69.14;100460.41;6140816;28;20548;-49
2021/05/14 02:07:06;;;;;;;10.53;8.33;;;;;;;11.73;68.61;100448.00;6139519;28;20450;-51
2021/05/14 02:10:27;;;;;;;14.77;8.70;;;;;;;11.80;68.65;100457.44;6144025;29;20224;-50
2021/05/14 02:13:48;;;;;;;9.00;7.53;;;;;;;12.00;67.63;100446.66;6141433;29;20231;-49
2021/05/14 02:17:09;;;;;;;12.63;8.07;;;;;;;11.80;68.55;100460.06;6134773;29;20627;-49
2021/05/14 02:20:29;;;;;;;10.37;8.27;;;;;;;11.82;68.03;100455.66;6141843;28;20231;-50
2021/05/14 02:23:50;;;;;;;16.63;9.77;;;;;;;11.97;68.20;100452.78;6122796;28;20238;-48
2021/05/14 02:27:10;;;;;;;12.37;9.93;;;;;;;11.89;68.05;100456.41;6141407;29;20564;-49
2021/05/14 02:30:31;;;;;;;17.27;9.83;;;;;;;11.88;68.25;100455.53;6136223;29;20751;-50
2021/05/14 02:33:52;;;;;;;15.87;10.67;;;;;;;11.56;69.16;100450.97;6131278;29;20425;-47
2021/05/14 02:37:13;;;;;;;18.43;10.37;;;;;;;11.47;69.29;100445.91;6139620;28;20235;-52
2021/05/14 02:40:35;;;;;;;18.10;11.97;;;;;;;11.41;69.88;100452.09;6138831;29;20235;-48
2021/05/14 02:43:55;;;;;;;15.53;10.90;;;;;;;11.49;69.26;100444.13;6135553;28;20227;-49
2021/05/14 02:47:16;;;;;;;14.53;11.80;;;;;;;11.41;70.17;100437.31;6128331;28;20227;-50
2021/05/14 02:50:37;;;;;;;20.23;11.47;;;;;;;11.50;69.23;100445.88;6147718;28;20235;-50
2021/05/14 02:53:57;;;;;;;15.33;12.03;;;;;;;11.59;69.36;100441.34;6132947;28;20593;-49
2021/05/14 02:57:18;;;;;;;21.10;13.23;;;;;;;11.31;69.95;100446.19;6134940;29;20338;-52
2021/05/14 03:00:40;;;;;;;16.17;11.70;;;;;;;11.56;69.52;100441.38;6139021;28;20258;-46
2021/05/14 03:04:01;;;;;;;23.17;12.80;;;;;;;11.69;69.00;100441.13;6140754;29;20227;-52
2021/05/14 03:07:21;;;;;;;22.13;14.17;;;;;;;11.39;69.51;100446.06;6120055;29;20239;-51
2021/05/14 03:10:42;;;;;;;17.53;12.27;;;;;;;11.66;68.79;100446.44;6138633;28;20258;-45
2021/05/14 03:14:05;;;;;;;21.80;12.60;;;;;;;11.70;68.81;100441.09;6140983;28;20235;-45
2021/05/14 03:17:26;;;;;;;24.50;14.20;;;;;;;11.72;69.01;100446.31;6140633;29;20242;-47
2021/05/14 03:20:48;;;;;;;19.27;12.57;;;;;;;11.72;69.10;100441.09;6132709;28;20252;-47
2021/05/14 03:24:09;;;;;;;22.30;12.80;;;;;;;11.54;69.69;100452.75;6132973;29;20239;-50
2021/05/14 03:27:30;;;;;;;22.00;12.03;;;;;;;11.16;70.91;100447.31;6137835;28;20697;-48
2021/05/14 03:30:51;;;;;;;22.20;14.53;;;;;;;11.46;70.18;100442.44;6139053;28;20235;-46
2021/05/14 03:34:12;;;;;;;20.23;14.47;;;;;;;11.35;70.45;100428.75;6140122;28;20541;-49
2021/05/14 03:37:33;;;;;;;18.30;13.20;;;;;;;11.02;70.92;100428.47;6139678;28;20251;-48
2021/05/14 03:40:55;;;;;;;21.43;12.27;;;;;;;11.35;70.54;100428.75;6126944;29;20246;-49
2021/05/14 03:44:15;;;;;;;25.77;12.53;;;;;;;11.31;70.94;100429.69;6136223;28;20227;-50
2021/05/14 03:47:36;;;;;;;20.50;13.50;;;;;;;11.62;69.59;100429.97;6139763;28;20231;-47
2021/05/14 03:50:57;;;;;;;18.27;12.17;;;;;;;11.05;71.48;100436.25;6140034;29;20246;-48
2021/05/14 03:54:22;;;;;;;21.20;11.17;;;;;;;11.17;71.07;100436.00;6139407;29;21614;-45
2021/05/14 03:57:42;;;;;;;16.20;11.53;;;;;;;11.43;70.41;100435.53;6137387;28;20235;-48
2021/05/14 04:01:03;;;;;;;17.33;10.70;;;;;;;11.20;71.15;100428.13;6137137;28;20246;-47
2021/05/14 04:04:24;;;;;;;23.10;11.37;;;;;;;11.54;69.86;100431.88;6140904;29;20609;-46
2021/05/14 04:07:45;;;;;;;20.07;11.43;;;;;;;11.70;69.18;100429.81;6141890;29;20235;-44
2021/05/14 04:11:28;;;;;;;23.73;13.17;;;;;;;11.74;68.87;100440.16;6139464;28;20253;-48
2021/05/14 04:14:48;;;;;;;14.97;12.30;;;;;;;11.57;69.17;100443.13;6122613;28;20259;-51
2021/05/14 04:18:09;;;;;;;20.67;12.63;;;;;;;11.59;69.02;100449.16;6133303;28;20243;-48
2021/05/14 04:21:29;;;;;;;18.83;12.93;;;;;;;11.37;69.88;100445.22;6136607;28;20644;-48
2021/05/14 04:24:50;;;;;;;17.77;11.57;;;;;;;11.73;68.54;100448.00;6141970;28;20235;-47
2021/05/14 04:28:11;;;;;;;20.50;12.47;;;;;;;11.81;68.32;100452.19;6139523;28;20322;-45
2021/05/14 04:31:32;;;;;;;21.40;10.20;;;;;;;11.90;67.72;100456.38;6127051;28;20310;-47
2021/05/14 04:34:53;;;;;;;16.83;10.17;;;;;;;11.77;67.75;100450.53;6140195;29;20325;-49
2021/05/14 04:38:14;;;;;;;18.57;11.67;;;;;;;11.92;67.36;100446.81;6142206;29;20322;-50
2021/05/14 04:41:36;;;;;;;20.37;11.97;;;;;;;11.67;68.68;100445.53;6127557;28;20227;-47
2021/05/14 04:44:57;;;;;;;18.90;12.10;;;;;;;11.30;68.87;100441.88;6141782;29;20239;-50
2021/05/14 04:48:17;;;;;;;18.03;11.13;;;;;;;11.70;68.11;100438.50;6132416;28;20231;-47
2021/05/14 04:51:38;;;;;;;16.77;10.97;;;;;;;11.69;67.27;100446.34;6138821;28;20243;-49
2021/05/14 04:54:58;;;;;;;18.17;10.87;;;;;;;11.82;66.70;100440.88;6143511;28;20548;-48
2021/05/14 04:58:18;;;;;;;21.07;10.23;;;;;;;12.09;65.92;100442.97;6142322;28;20234;-47
2021/05/14 05:01:41;;;;;;;15.03;9.13;;;;;;;11.84;66.88;100438.22;6138724;29;20235;-50
2021/05/14 05:05:02;;;;;;;15.27;8.43;;;;;;;11.57;67.45;100440.50;6144162;29;20250;-50
2021/05/14 05:08:22;;;;;;;16.77;9.20;;;;;;;11.73;66.71;100438.44;6142454;29;20247;-46
2021/05/14 05:11:42;;;;;;;16.50;9.27;;;;;;;11.46;67.59;100444.19;6143741;28;20231;-48
2021/05/14 05:15:04;;;;;;;14.93;8.70;;;;;;;11.57;67.63;100439.63;6130843;28;20247;-50
2021/05/14 05:18:26;;;;;;;15.67;10.10;;;;;;;11.34;68.64;100434.84;6138697;29;20231;-48
2021/05/14 05:21:46;;;;;;;18.30;9.67;;;;;;;11.45;67.83;100443.31;6122523;28;20759;-49
2021/05/14 05:25:08;;;;;;;12.93;7.63;;;;;;;11.79;66.49;100440.94;6140862;28;20243;-49
2021/05/14 05:28:31;;;;;;;17.70;8.80;;;;;;;11.51;67.43;100453.63;6141392;28;20227;-45
2021/05/14 05:31:52;;;;;;;20.07;9.00;;;;;;;11.28;67.99;100455.81;6140509;28;20243;-48
2021/05/14 05:35:13;;;;;;;20.53;9.13;;;;;;;11.61;67.10;100459.53;6128257;29;20231;-48
2021/05/14 05:38:33;;;;;;;23.43;9.63;;;;;;;11.30;68.40;100454.03;6132338;28;20494;-45
2021/05/14 05:41:54;;;;;;;13.83;7.93;;;;;;;11.71;67.02;100455.00;6139641;28;20263;-48
2021/05/14 05:45:15;;;;;;;15.13;7.80;;;;;;;11.89;66.03;100444.25;6133330;28;20235;-45
2021/05/14 05:48:36;;;;;;;19.67;8.87;;;;;;;11.41;66.17;100457.31;6131866;28;20240;-47
2021/05/14 05:51:58;;;;;;;20.73;8.03;;;;;;;11.63;65.76;100461.25;6131827;28;20235;-49
2021/05/14 05:55:19;;;;;;;15.00;7.30;;;;;;;11.63;65.78;100468.19;6140231;28;20226;-52
2021/05/14 05:58:39;;;;;;;17.43;7.97;;;;;;;11.86;64.97;100465.13;6135330;29;20523;-50
2021/05/14 06:01:59;;;;;;;11.60;7.90;;;;;;;11.77;64.99;100473.19;6142272;28;20260;-47
2021/05/14 06:05:20;;;;;;;15.67;7.77;;;;;;;11.27;66.82;100474.97;6139328;28;20247;-53
2021/05/14 06:08:42;;;;;;;18.40;9.57;;;;;;;11.21;67.06;100476.78;6141850;29;20263;-50
2021/05/14 06:12:02;;;;;;;14.67;7.60;;;;;;;12.06;65.44;100476.97;6139622;29;20561;-51
2021/05/14 06:15:23;;;;;;;14.40;6.87;;;;;;;11.91;67.43;100476.38;6135736;28;20231;-46
2021/05/14 06:18:47;;;;;;;13.80;7.33;;;;;;;12.00;65.21;100468.38;6137948;28;20551;-48
2021/05/14 06:22:07;;;;;;;17.90;8.00;;;;;;;12.15;64.88;100472.41;6139180;28;20625;-46
2021/05/14 06:25:29;;;;;;;13.33;6.93;;;;;;;11.76;65.15;100477.50;6139410;29;20676;-49
2021/05/14 06:28:50;;;;;;;16.73;7.20;;;;;;;11.40;66.14;100476.47;6142245;28;20239;-48
2021/05/14 06:32:10;;;;;;;14.27;7.13;;;;;;;11.89;64.27;100475.56;6140937;28;20613;-52
2021/05/14 06:35:32;;;;;;;15.67;7.73;;;;;;;11.74;65.29;100475.81;6138812;29;20227;-47
2021/05/14 06:38:53;;;;;;;17.87;8.87;;;;;;;11.81;64.64;100467.84;6140032;29;20227;-49
2021/05/14 06:42:15;;;;;;;12.07;7.37;;;;;;;12.44;63.43;100472.69;6134590;28;20243;-48
2021/05/14 06:45:35;;;;;;;13.43;7.57;;;;;;;12.61;62.54;100470.56;6142273;28;20223;-49
2021/05/14 06:48:56;;;;;;;13.77;7.30;;;;;;;12.55;62.30;100486.38;6141289;29;20755;-45
2021/05/14 06:52:16;;;;;;;18.33;6.80;;;;;;;12.09;63.94;100490.81;6138216;28;20235;-52
2021/05/14 06:55:37;;;;;;;16.10;7.97;;;;;;;12.33;63.34;100488.56;6146559;28;20239;-48
2021/05/14 06:58:59;;;;;;;15.87;7.50;;;;;;;12.45;62.55;100490.09;6138532;28;20234;-53
2021/05/14 07:02:19;;;;;;;12.43;6.20;;;;;;;12.42;62.60;100480.53;6137907;28;20644;-51
2021/05/14 07:05:40;;;;;;;13.43;7.03;;;;;;;12.24;63.00;100492.25;6136344;28;20235;-46
2021/05/14 07:09:00;;;;;;;15.53;8.10;;;;;;;12.46;62.98;100491.78;6139964;28;20664;-45
2021/05/14 07:12:21;;;;;;;14.10;7.00;;;;;;;12.10;63.67;100489.09;6136754;29;20243;-50
2021/05/14 07:15:42;;;;;;;8.87;6.07;;;;;;;12.16;63.84;100483.72;6137501;28;20579;-50
2021/05/14 07:19:03;;;;;;;14.93;7.80;;;;;;;11.83;64.02;100486.94;6135789;29;20603;-48
2021/05/14 07:22:23;;;;;;;18.70;6.87;;;;;;;12.25;63.20;100485.28;6140410;28;20239;-49
2021/05/14 07:25:44;;;;;;;14.27;6.90;;;;;;;12.21;62.99;100487.97;6135858;28;20501;-50
2021/05/14 07:29:06;;;;;;;11.93;7.13;;;;;;;12.20;63.62;100490.59;6140679;28;20598;-48
2021/05/14 07:32:27;;;;;;;13.17;7.57;;;;;;;12.24;63.06;100492.25;6130625;28;20313;-51
2021/05/14 07:35:47;;;;;;;14.63;6.87;;;;;;;11.91;64.37;100499.88;6110897;28;20227;-50
2021/05/14 07:39:08;;;;;;;15.03;7.43;;;;;;;12.06;64.19;100497.84;6139805;28;20235;-50
2021/05/14 07:42:29;;;;;;;13.57;7.20;;;;;;;11.79;64.39;100495.72;6136399;28;20227;-49
2021/05/14 07:45:49;;;;;;;15.03;7.43;;;;;;;11.72;65.26;100503.69;6135139;29;20830;-50
2021/05/14 07:49:10;;;;;;;9.93;6.53;;;;;;;12.09;67.51;100497.78;6142698;28;20246;-47
2021/05/14 07:52:31;;;;;;;8.73;6.00;;;;;;;13.02;69.09;100492.22;6135529;28;20231;-48
2021/05/14 07:55:51;;;;;;;11.33;5.33;;;;;;;12.91;63.77;100502.94;6141251;28;20433;-47
2021/05/14 07:59:11;;;;;;;13.10;7.20;;;;;;;13.19;61.94;100505.75;6145019;28;20235;-51
2021/05/14 08:02:32;;;;;;;11.03;6.50;;;;;;;12.77;61.74;100505.88;6136614;28;20243;-46
2021/05/14 08:05:53;;;;;;;15.70;5.90;;;;;;;12.53;61.68;100511.66;6133290;28;20251;-52
2021/05/14 08:09:19;;;;;;;8.70;6.20;;;;;;;12.48;61.90;100510.91;6143774;28;20235;-53
2021/05/14 08:12:39;;;;;;;15.53;7.90;;;;;;;12.83;60.80;100517.94;6142971;28;20250;-53
2021/05/14 08:16:00;;;;;;;11.80;5.80;;;;;;;12.63;61.15;100521.00;6138506;28;20227;-47
2021/05/14 08:19:20;;;;;;;17.50;6.57;;;;;;;12.52;61.64;100509.94;6141872;28;20270;-51
2021/05/14 08:22:42;;;;;;;15.67;5.73;;;;;;;12.31;61.86;100519.97;6136016;28;20231;-48
2021/05/14 08:26:03;;;;;;;15.27;6.70;;;;;;;11.95;63.91;100530.22;6141218;28;20322;-50
2021/05/14 08:29:25;;;;;;;22.53;7.73;;;;;;;11.61;65.52;100517.81;6141400;28;20239;-52
2021/05/14 08:32:45;;;;;;;17.67;7.03;;;;;;;11.74;65.66;100510.59;6131223;28;20286;-50
2021/05/14 08:36:06;;;;;;;19.83;8.23;;;;;;;12.00;64.30;100520.56;6126718;28;20242;-48
2021/05/14 08:39:28;;;;;;;18.13;8.67;;;;;;;11.22;67.35;100525.44;6143529;28;20606;-49
2021/05/14 08:42:48;;;;;;;15.07;8.90;;;;;;;11.33;67.42;100521.78;6142056;28;20219;-46
2021/05/14 08:46:12;;;;;;;15.50;7.27;;;;;;;11.32;67.77;100522.66;6144990;28;20293;-51
2021/05/14 08:49:34;;;;;;;14.50;7.23;;;;;;;11.43;67.89;100513.75;6143119;28;20231;-50
2021/05/14 08:52:55;;;;;;;15.10;8.27;;;;;;;11.63;67.49;100516.03;6140791;28;20318;-50
2021/05/14 08:56:17;;;;;;;16.47;7.77;;;;;;;11.49;68.52;100520.59;6142726;28;20235;-50
2021/05/14 08:59:38;;;;;;;18.90;8.30;;;;;;;11.07;69.95;100520.47;6142423;28;20247;-49
2021/05/14 09:02:59;;;;;;;20.27;8.60;;;;;;;11.06;70.80;100521.34;6138590;28;20231;-49
2021/05/14 09:06:27;;;;;;;18.10;8.87;;;;;;;10.78;71.08;100519.16;6130382;28;20318;-50
2021/05/14 09:10:04;;;;;;;18.40;9.93;;;;;;;11.40;70.05;100523.41;6144139;28;20251;-50
2021/05/14 09:13:35;;;;;;;13.53;7.30;;;;;;;11.42;69.67;100527.69;6131505;28;20239;-47
2021/05/14 09:16:56;;;;;;;14.67;8.50;;;;;;;11.38;69.67;100538.19;6139985;28;20235;-51
2021/05/14 09:20:29;;;;;;;21.13;8.60;;;;;;;11.66;68.55;100535.13;6137666;28;20227;-50
2021/05/14 09:23:55;;;;;;;33.77;9.83;;;;;;;10.95;70.90;100547.56;6116274;28;20230;-46
2021/05/14 09:27:28;;;;;;;16.27;8.53;;;;;;;10.81;72.18;100552.09;6139181;29;20239;-50
2021/05/14 09:31:06;;;;;;;29.57;11.67;;;;;;;10.64;71.80;100547.13;6138283;28;20953;-48
2021/05/14 09:34:32;;;;;;;21.73;9.83;;;;;;;11.05;71.29;100553.50;6121199;28;20238;-47
2021/05/14 09:37:53;;;;;;;16.43;9.10;;;;;;;10.89;71.78;100557.19;6135300;28;20243;-52
2021/05/14 09:41:39;;;;;;;16.57;8.67;;;;;;;11.42;70.54;100558.97;6118964;28;20619;-51
2021/05/14 09:45:14;;;;;;;14.47;8.90;;;;;;;11.11;70.89;100556.00;6129397;28;20731;-51
2021/05/14 09:48:55;;;;;;;12.00;8.93;;;;;;;10.96;71.47;100564.06;6140091;28;20505;-45
2021/05/14 09:52:25;;;;;;;21.87;9.67;;;;;;;11.09;70.89;100567.31;6142327;28;20235;-46
2021/05/14 09:55:49;;;;;;;15.97;8.30;;;;;;;11.50;69.43;100566.69;6141234;28;20605;-49
2021/05/14 09:59:10;;;;;;;15.43;9.53;;;;;;;10.82;71.46;100556.44;6140647;29;20255;-50
2021/05/14 10:02:33;;;;;;;16.53;9.80;;;;;;;11.06;70.26;100572.59;6136402;29;20231;-52
2021/05/14 10:05:57;;;;;;;15.50;8.70;;;;;;;11.02;70.21;100570.03;6137369;28;20612;-50
2021/05/14 10:09:19;;;;;;;12.77;9.97;;;;;;;11.52;69.23;100575.34;6140838;28;20223;-51
2021/05/14 10:12:40;;;;;;;13.40;8.83;;;;;;;11.35;69.68;100567.78;6126962;28;20223;-48
2021/05/14 10:16:03;;;;;;;15.13;9.03;;;;;;;11.46;68.96;100564.13;6120797;28;20238;-53
2021/05/14 10:19:23;;;;;;;26.03;9.30;;;;;;;11.36;69.73;100569.50;6139805;28;20231;-51
2021/05/14 10:22:46;;;;;;;15.13;8.77;;;;;;;10.58;71.68;100579.31;6141371;28;20227;-51
2021/05/14 10:26:08;;;;;;;14.20;9.27;;;;;;;10.89;70.75;100572.84;6131577;28;20589;-50
2021/05/14 10:29:36;;;;;;;13.93;9.47;;;;;;;10.96;71.06;100577.09;6137886;28;20636;-44
2021/05/14 10:32:58;;;;;;;19.90;11.30;;;;;;;11.03;70.33;100579.56;6138738;28;20243;-50
2021/05/14 10:36:44;;;;;;;16.47;8.43;;;;;;;11.18;69.71;100577.59;6138494;28;20260;-48
2021/05/14 10:40:42;;;;;;;15.13;9.17;;;;;;;11.12;70.10;100573.34;6139548;28;20235;-47
2021/05/14 10:44:05;;;;;;;13.70;8.37;;;;;;;11.08;70.57;100579.50;6137803;28;20234;-47
2021/05/14 10:47:47;;;;;;;14.43;8.10;;;;;;;11.39;68.74;100571.19;6138116;28;20238;-47
2021/05/14 10:51:10;;;;;;;15.27;7.63;;;;;;;11.22;69.13;100568.84;6138681;28;20373;-51
2021/05/14 10:54:49;;;;;;;20.03;10.07;;;;;;;11.06;70.63;100570.00;6129135;28;20235;-48
2021/05/14 10:58:43;;;;;;;14.87;8.97;;;;;;;10.90;71.32;100570.22;6122676;28;20282;-49
2021/05/14 11:02:26;;;;;;;16.90;8.83;;;;;;;11.45;69.90;100576.31;6138829;28;20226;-53
2021/05/14 11:05:48;;;;;;;15.30;10.33;;;;;;;11.27;70.43;100584.44;6104652;28;20247;-48
2021/05/14 11:09:10;;;;;;;17.20;9.80;;;;;;;10.83;72.51;100582.44;6135419;28;20622;-50
2021/05/14 11:12:31;;;;;;;13.67;9.70;;;;;;;10.97;71.80;100578.78;6137656;28;20227;-51
2021/05/14 11:15:52;;;;;;;13.87;9.60;;;;;;;10.84;72.23;100585.94;6133763;28;20731;-52
2021/05/14 11:19:18;;;;;;;15.90;9.27;;;;;;;11.41;71.07;100585.06;6142341;28;20234;-47
2021/05/14 11:22:39;;;;;;;12.57;8.30;;;;;;;11.21;70.82;100581.03;6140572;28;20488;-50
2021/05/14 11:26:00;;;;;;;16.30;10.03;;;;;;;11.41;70.62;100588.53;6114562;28;20235;-50
2021/05/14 11:29:30;;;;;;;15.60;9.63;;;;;;;11.52;70.60;100585.75;6135401;28;20222;-49
2021/05/14 11:32:54;;;;;;;17.10;9.13;;;;;;;11.57;70.44;100594.38;6138605;28;22271;-53
2021/05/14 11:36:14;;;;;;;17.77;10.50;;;;;;;12.05;70.35;100592.69;6138457;28;20239;-60
2021/05/14 11:39:35;;;;;;;17.17;8.77;;;;;;;12.18;69.75;100597.66;6139847;28;20239;-61
2021/05/14 11:42:56;;;;;;;13.93;9.70;;;;;;;11.97;69.80;100595.44;6147395;28;20227;-62
2021/05/14 11:46:17;;;;;;;15.23;8.23;;;;;;;12.02;68.88;100593.63;6139295;28;20262;-60
2021/05/14 11:49:38;;;;;;;15.73;8.47;;;;;;;12.24;71.07;100599.28;6142229;29;20231;-62
2021/05/14 11:53:01;;;;;;;14.67;8.03;;;;;;;12.01;69.83;100592.75;6127145;28;20232;-61
2021/05/14 11:56:21;;;;;;;13.70;8.30;;;;;;;11.82;68.63;100589.59;6141618;28;20325;-60
2021/05/14 11:59:44;;;;;;;11.20;8.50;;;;;;;11.89;68.81;100599.94;6136549;28;20238;-51
2021/05/14 12:03:06;;;;;;;13.83;8.87;;;;;;;10.88;71.96;100602.38;6139070;28;20227;-51
2021/05/14 12:06:28;;;;;;;13.53;9.20;;;;;;;11.22;71.64;100616.66;6140803;28;20258;-47
2021/05/14 12:09:57;;;;;;;15.23;9.23;;;;;;;10.97;73.07;100617.88;6144143;28;20219;-47
2021/05/14 12:13:19;;;;;;;15.67;9.70;;;;;;;11.07;72.67;100611.66;6123645;28;20235;-48
2021/05/14 12:16:40;;;;;;;12.13;9.40;;;;;;;10.96;72.85;100623.97;6138676;28;20672;-54
2021/05/14 12:20:15;;;;;;;12.60;9.80;;;;;;;10.59;73.56;100629.66;6142699;28;20318;-50
2021/05/14 12:23:37;;;;;;;15.40;10.03;;;;;;;10.42;74.33;100628.09;6137857;28;20235;-48
2021/05/14 12:27:03;;;;;;;13.37;10.23;;;;;;;10.72;73.04;100639.06;6136797;28;20823;-47
2021/05/14 12:30:38;;;;;;;13.07;9.20;;;;;;;10.65;72.85;100632.19;6137168;28;20231;-47
2021/05/14 12:34:01;;;;;;;12.20;8.33;;;;;;;10.99;71.99;100640.44;6135483;29;20223;-45
2021/05/14 12:37:22;;;;;;;13.23;9.20;;;;;;;10.95;72.07;100636.16;6135833;28;20236;-49
2021/05/14 12:40:46;;;;;;;13.50;9.30;;;;;;;10.78;72.69;100636.38;6131688;28;20236;-48
2021/05/14 12:44:13;;;;;;;15.27;10.37;;;;;;;10.83;72.99;100647.56;6140618;28;20326;-48
2021/05/14 12:47:33;;;;;;;16.63;10.43;;;;;;;10.92;72.35;100645.75;6127723;28;20625;-45
2021/05/14 12:50:55;;;;;;;10.63;9.53;;;;;;;10.54;73.96;100660.94;6124395;28;20422;-45
2021/05/14 12:54:21;;;;;;;11.97;9.77;;;;;;;10.98;73.12;100650.88;6136128;28;20261;-46
2021/05/14 12:57:44;;;;;;;15.87;10.50;;;;;;;11.11;72.29;100654.16;6129085;28;20243;-50
2021/05/14 13:01:05;;;;;;;13.23;10.97;;;;;;;10.90;73.48;100658.78;6133500;28;23054;-52
2021/05/14 13:04:30;;;;;;;11.00;9.63;;;;;;;11.07;73.01;100655.97;6133447;28;20235;-47
2021/05/14 13:08:01;;;;;;;12.83;10.57;;;;;;;10.99;73.04;100656.06;6138137;28;20252;-48
2021/05/14 13:11:25;;;;;;;11.43;10.23;;;;;;;10.71;74.36;100663.38;6140220;28;20243;-47
2021/05/14 13:14:47;;;;;;;14.83;11.57;;;;;;;11.10;73.63;100661.13;6134667;28;20224;-48
2021/05/14 13:18:08;;;;;;;12.77;10.90;;;;;;;11.56;72.04;100668.28;6143483;28;20263;-47
2021/05/14 13:21:29;;;;;;;15.83;13.37;;;;;;;11.68;71.82;100674.19;6137655;28;20235;-50
2021/05/14 13:24:49;;;;;;;13.23;11.03;;;;;;;11.28;72.74;100670.41;6139193;28;20220;-47
2021/05/14 13:28:09;;;;;;;12.77;10.30;;;;;;;11.75;71.21;100681.03;6129474;28;20267;-47
2021/05/14 13:31:31;;;;;;;12.43;11.10;;;;;;;11.62;71.47;100675.16;6127059;28;20589;-48
2021/05/14 13:34:52;;;;;;;14.60;10.27;;;;;;;11.72;70.67;100670.66;6136087;28;20819;-45
2021/05/14 13:38:12;;;;;;;13.57;11.03;;;;;;;11.76;70.57;100674.94;6148929;28;20242;-47
2021/05/14 13:41:33;;;;;;;14.13;8.83;;;;;;;11.71;69.99;100675.00;6136217;28;20322;-48
2021/05/14 13:44:54;;;;;;;13.30;9.90;;;;;;;11.54;71.36;100679.63;6124788;28;20239;-50
2021/05/14 13:48:15;;;;;;;16.17;11.20;;;;;;;11.79;69.97;100677.50;6136205;28;20677;-48
2021/05/14 13:51:37;;;;;;;14.30;11.83;;;;;;;11.71;71.11;100672.41;6142319;28;20247;-49
2021/05/14 13:54:58;;;;;;;16.37;12.37;;;;;;;11.85;70.30;100672.19;6138419;28;20231;-48
2021/05/14 13:58:19;;;;;;;15.67;10.20;;;;;;;11.83;70.78;100673.94;6133345;28;20234;-47
2021/05/14 14:01:39;;;;;;;12.47;11.10;;;;;;;11.67;70.91;100670.72;6141347;28;20239;-49
2021/05/14 14:05:00;;;;;;;12.77;8.87;;;;;;;11.67;70.89;100660.31;6135312;28;20235;-52
2021/05/14 14:08:21;;;;;;;10.00;8.67;;;;;;;11.61;70.33;100663.88;6119842;28;20232;-51
2021/05/14 14:11:42;;;;;;;10.10;8.30;;;;;;;11.81;69.40;100660.06;6136929;28;20227;-47
2021/05/14 14:15:05;;;;;;;12.43;9.37;;;;;;;11.68;70.56;100668.97;6132673;28;20231;-47
2021/05/14 14:18:25;;;;;;;11.27;8.93;;;;;;;11.59;70.96;100673.47;6124310;28;20318;-46
2021/05/14 14:21:47;;;;;;;16.17;11.03;;;;;;;11.65;70.11;100669.00;6132382;28;20624;-46
2021/05/14 14:25:09;;;;;;;11.80;10.60;;;;;;;11.05;73.07;100678.59;6132513;28;20259;-47
2021/05/14 14:28:30;;;;;;;10.17;8.20;;;;;;;11.39;71.34;100675.50;6137423;28;20235;-48
2021/05/14 14:31:50;;;;;;;12.37;9.67;;;;;;;11.61;70.90;100673.41;6132391;28;20231;-52
2021/05/14 14:35:13;;;;;;;14.27;9.83;;;;;;;11.61;71.05;100683.84;6133364;28;20235;-48
2021/05/14 14:38:35;;;;;;;13.53;10.03;;;;;;;11.87;70.18;100680.84;6132341;28;20235;-45
2021/05/14 14:41:56;;;;;;;11.67;9.20;;;;;;;11.95;70.17;100678.13;6134157;28;20223;-50
2021/05/14 14:45:16;;;;;;;10.67;9.57;;;;;;;11.26;71.94;100681.75;6129804;28;20321;-48
2021/05/14 14:48:37;;;;;;;10.33;7.87;;;;;;;11.51;70.57;100671.84;6127649;28;20669;-48
2021/05/14 14:51:57;;;;;;;11.83;8.87;;;;;;;11.43;70.08;100677.16;6129970;28;20227;-44
2021/05/14 14:55:19;;;;;;;17.17;9.37;;;;;;;11.49;70.45;100674.47;6130432;28;20238;-47
2021/05/14 14:58:39;;;;;;;13.93;9.60;;;;;;;11.55;70.38;100673.50;6127542;28;20307;-47
2021/05/14 15:01:59;;;;;;;11.73;8.50;;;;;;;11.69;70.05;100673.28;6134500;28;20668;-46
2021/05/14 15:05:20;;;;;;;10.97;8.67;;;;;;;11.43;70.23;100679.78;6128997;28;20227;-49
2021/05/14 15:08:41;;;;;;;10.40;8.90;;;;;;;11.69;70.49;100671.56;6134466;28;20235;-51
2021/05/14 15:12:02;;;;;;;10.90;9.33;;;;;;;11.68;69.69;100664.63;6136368;28;20586;-44
2021/05/14 15:15:23;;;;;;;11.20;8.70;;;;;;;11.46;70.51;100666.72;6139374;28;20235;-48
2021/05/14 15:18:44;;;;;;;11.27;9.87;;;;;;;11.61;70.23;100668.19;6131966;28;20231;-51
2021/05/14 15:22:05;;;;;;;14.60;12.87;;;;;;;11.56;70.30;100676.09;6129974;28;20224;-50
2021/05/14 15:25:26;;;;;;;19.27;14.50;;;;;;;11.92;69.59;100668.63;6130828;28;20223;-48
2021/05/14 15:28:47;;;;;;;15.43;12.93;;;;;;;11.52;71.07;100670.97;6131785;28;20366;-49